Terminal Aerodrome Forecast
Issued by NWS Amarillo, TX

Home | Current Version | Previous Version | Text Only | Print | Product List | Glossary On
Versions: 1 2 3 4 5 6 7 8 9 10 11 12 13 14 15 16 17 18
000
FTUS44 KAMA 031700
TAFGUY
TAF
KGUY 031722Z 0318/0418 15009KT P6SM SCT040
     FM040000 13010KT P6SM VCTS SCT040CB BKN070 OVC150
      TEMPO 0402/0405 30020G40KT 3SM +TSRA BKN030CB
     FM040800 14008KT P6SM BKN150=

USA.gov is the U.S. government's official web portal to all federal, state and local government web resources and services.